Startpagina
METAR-TAF:

METAR-TAF

Vliegvelden :

Afton, Wyoming, Verenigde Staten

breedte: 42-42-32N, lengte: 110-56-32W, hoogte: 1896 m

Actueel weer

Dit bericht is 22 minuten geleden gemaakt, om 13:35 UTC
Weinig wind
Temperatuur 0°C
Vochtigheid 93%
Druk 1013 hPa
Zicht: 16.1 km
Gebroken wolken op 2600 ft
Gebroken wolken op 3200 ft
Geheel bewolkt op 4400 ft

METAR: KAFO 181335Z AUTO 00000KT 10SM BKN026 BKN032 OVC044 00/M01 A2992 RMK AO2

Tijdstip: 07:57 (13:57 UTC)


TAF: ontbreekt

Waarnemingen en weersverwachtingen van meer dan 4000 vliegvelden (METAR en TAF).

De beschikbare stations zijn de gele en rode punten op de kaart.

Ga met uw muis naar het station om de naam te zien.

Klik dan om waarnemingen en weersverwachtingen te zien.

kaart wijzigen: klik op de groene knoppen met een zwart kruis om in te zoomen, op de groene knop met een streepje om uit te zoomen of op de groene pijlen voor aangrenzende kaarten.


METAR-TAF: